createdAt,value
2022-10-19T00:01:13.496Z,99331.88
2022-10-19T00:03:41.043Z,99329.25
2022-10-19T00:06:32.320Z,99324.69
2022-10-19T00:09:04.108Z,99316.69
2022-10-19T00:11:32.086Z,99308.63
2022-10-19T00:14:00.164Z,99301.47
2022-10-19T00:16:32.845Z,99298.00
2022-10-19T00:19:02.919Z,99286.56
2022-10-19T00:21:30.075Z,99282.31
2022-10-19T00:23:57.137Z,99269.22
2022-10-19T00:26:24.877Z,99275.44
2022-10-19T00:28:57.635Z,99284.09
2022-10-19T00:31:25.326Z,99280.53
2022-10-19T00:33:53.097Z,99271.66
2022-10-19T00:36:23.979Z,99264.50
2022-10-19T00:38:51.826Z,99262.84
2022-10-19T00:41:19.721Z,99259.25
2022-10-19T00:44:08.249Z,99250.41
2022-10-19T00:46:38.864Z,99247.13
2022-10-19T00:49:18.151Z,99249.59
2022-10-19T00:51:50.158Z,99253.34
2022-10-19T00:54:18.820Z,99260.22
2022-10-19T00:56:49.998Z,99255.00
2022-10-19T00:59:20.809Z,99258.94
2022-10-19T01:01:49.165Z,99251.72
2022-10-19T01:04:16.285Z,99263.00
2022-10-19T01:06:43.375Z,99257.75
2022-10-19T01:09:10.735Z,99258.09
2022-10-19T01:12:02.302Z,99256.16
2022-10-19T01:15:00.027Z,99253.38
2022-10-19T01:17:54.185Z,99241.09
2022-10-19T01:20:52.491Z,99236.81
2022-10-19T01:23:34.479Z,99242.06
2022-10-19T01:26:07.723Z,99246.47
2022-10-19T01:28:59.563Z,99255.31
2022-10-19T01:31:49.278Z,99253.69
2022-10-19T01:34:40.927Z,99241.91
2022-10-19T01:37:27.369Z,99234.69
2022-10-19T01:40:01.827Z,99238.97
2022-10-19T01:42:30.019Z,99227.50
2022-10-19T01:45:36.014Z,99227.50
2022-10-19T01:48:28.917Z,99211.13
2022-10-19T01:51:13.078Z,99207.22
2022-10-19T01:53:46.522Z,99196.91
2022-10-19T01:56:15.954Z,99191.84
2022-10-19T01:58:45.661Z,99181.72
2022-10-19T02:01:16.774Z,99186.94
2022-10-19T02:03:49.248Z,99188.06
2022-10-19T02:06:16.938Z,99197.25
2022-10-19T02:08:49.689Z,99183.81
2022-10-19T02:11:17.898Z,99183.19
2022-10-19T02:13:48.567Z,99176.81
2022-10-19T02:16:24.905Z,99167.66
2022-10-19T02:18:54.163Z,99179.75
2022-10-19T02:21:21.272Z,99172.25
2022-10-19T02:23:49.417Z,99167.00
2022-10-19T02:26:19.713Z,99163.53
2022-10-19T02:28:47.152Z,99163.72
2022-10-19T02:31:14.288Z,99153.25
2022-10-19T02:33:41.214Z,99147.38
2022-10-19T02:36:08.502Z,99146.72
2022-10-19T02:38:35.493Z,99141.81
2022-10-19T02:41:23.777Z,99146.53
2022-10-19T02:44:03.698Z,99142.44
2022-10-19T02:46:38.083Z,99141.78
2022-10-19T02:49:08.355Z,99140.31
2022-10-19T02:51:36.725Z,99137.69
2022-10-19T02:54:05.870Z,99131.97
2022-10-19T02:56:34.264Z,99134.59
2022-10-19T02:59:02.103Z,99129.19
2022-10-19T03:01:29.136Z,99126.75
2022-10-19T03:03:56.073Z,99132.94
2022-10-19T03:06:23.709Z,99129.69
2022-10-19T03:08:51.227Z,99125.91
2022-10-19T03:11:18.205Z,99123.47
2022-10-19T03:13:45.138Z,99120.84
2022-10-19T03:16:13.629Z,99118.22
2022-10-19T03:18:40.883Z,99124.47
2022-10-19T03:21:11.113Z,99123.47
2022-10-19T03:23:39.419Z,99128.69
2022-10-19T03:26:09.993Z,99121.00
2022-10-19T03:28:39.157Z,99116.25
2022-10-19T03:31:06.617Z,99106.66
2022-10-19T03:33:33.498Z,99109.75
2022-10-19T03:36:21.362Z,99110.72
2022-10-19T03:38:51.639Z,99102.88
2022-10-19T03:41:20.233Z,99101.22
2022-10-19T03:43:47.297Z,99101.53
2022-10-19T03:46:14.985Z,99095.66
2022-10-19T03:48:42.570Z,99094.19
2022-10-19T03:51:12.443Z,99078.69
2022-10-19T03:53:40.766Z,99071.50
2022-10-19T03:56:13.297Z,99078.00
2022-10-19T03:58:41.826Z,99070.50
2022-10-19T04:01:11.758Z,99074.91
2022-10-19T04:03:38.832Z,99068.03
2022-10-19T04:06:12.201Z,99062.66
2022-10-19T04:08:39.224Z,99057.59
2022-10-19T04:11:14.268Z,99050.75
2022-10-19T04:13:41.399Z,99044.19
2022-10-19T04:16:10.023Z,99044.19
2022-10-19T04:18:36.907Z,99026.72
2022-10-19T04:21:05.814Z,99042.41
2022-10-19T04:23:35.755Z,99039.78
2022-10-19T04:26:05.749Z,99040.47
2022-10-19T04:28:34.470Z,99033.75
2022-10-19T04:31:06.248Z,99033.09
2022-10-19T04:33:34.724Z,99033.25
2022-10-19T04:36:07.237Z,99031.63
2022-10-19T04:38:35.290Z,99037.53
2022-10-19T04:41:14.229Z,99028.69
2022-10-19T04:43:41.642Z,99024.78
2022-10-19T04:46:11.045Z,99021.50
2022-10-19T04:48:39.685Z,99023.13
2022-10-19T04:51:07.231Z,99023.63
2022-10-19T04:53:35.239Z,99008.91
2022-10-19T04:56:05.975Z,99017.91
2022-10-19T04:58:33.035Z,99016.09
2022-10-19T05:01:00.454Z,99013.00
2022-10-19T05:03:27.432Z,99013.00
2022-10-19T05:05:54.421Z,99015.28
2022-10-19T05:08:21.370Z,99011.53
2022-10-19T05:10:48.362Z,99011.38
2022-10-19T05:13:15.186Z,99007.75
2022-10-19T05:15:42.162Z,99015.59
2022-10-19T05:18:09.082Z,99015.13
2022-10-19T05:20:36.059Z,99002.22
2022-10-19T05:23:06.329Z,99016.44
2022-10-19T05:25:34.282Z,99005.16
2022-10-19T05:28:01.129Z,99013.16
2022-10-19T05:30:28.013Z,99008.75
2022-10-19T05:32:54.965Z,99010.53
2022-10-19T05:35:22.675Z,99003.88
2022-10-19T05:37:54.818Z,98989.81
2022-10-19T05:40:21.757Z,98998.31
2022-10-19T05:42:48.630Z,99000.91
2022-10-19T05:45:15.581Z,99004.19
2022-10-19T05:47:42.412Z,98997.47
2022-10-19T05:50:09.684Z,98997.31
2022-10-19T05:52:36.562Z,98995.38
2022-10-19T05:55:03.639Z,98992.75
2022-10-19T05:57:32.525Z,98983.63
2022-10-19T05:59:59.753Z,98997.00
2022-10-19T06:02:26.645Z,98990.63
2022-10-19T06:04:53.529Z,98991.44
2022-10-19T06:07:20.461Z,98993.38
2022-10-19T06:09:47.958Z,98974.63
2022-10-19T06:12:16.318Z,98989.66
2022-10-19T06:14:43.607Z,98992.25
2022-10-19T06:17:10.974Z,98994.72
2022-10-19T06:19:38.118Z,98988.31
2022-10-19T06:22:05.077Z,98990.28
2022-10-19T06:24:31.921Z,98986.34
2022-10-19T06:26:58.856Z,98988.50
2022-10-19T06:29:25.790Z,98980.66
2022-10-19T06:31:54.303Z,98979.69
2022-10-19T06:34:21.376Z,98979.00
2022-10-19T06:36:48.335Z,98979.31
2022-10-19T06:39:15.256Z,98977.03
2022-10-19T06:41:42.079Z,98995.31
2022-10-19T06:44:18.660Z,98988.16
2022-10-19T06:46:45.516Z,98963.31
2022-10-19T06:49:14.336Z,98976.56
2022-10-19T06:51:41.367Z,98979.31
2022-10-19T06:54:08.361Z,98984.22
2022-10-19T06:56:35.323Z,98984.88
2022-10-19T06:59:02.265Z,98982.56
2022-10-19T07:01:29.338Z,98985.00
2022-10-19T07:03:56.281Z,98982.72
2022-10-19T07:06:24.225Z,98985.50
2022-10-19T07:08:52.369Z,98982.22
2022-10-19T07:11:22.623Z,98977.81
2022-10-19T07:13:50.519Z,98983.69
2022-10-19T07:16:21.014Z,98980.28
2022-10-19T07:18:53.173Z,98976.34
2022-10-19T07:21:23.079Z,98978.28
2022-10-19T07:23:50.274Z,98974.34
2022-10-19T07:26:21.181Z,98964.50
2022-10-19T07:28:49.134Z,98968.75
2022-10-19T07:31:18.517Z,98971.53
2022-10-19T07:33:45.483Z,98971.22
2022-10-19T07:36:13.999Z,98961.59
2022-10-19T07:38:41.401Z,98964.84
2022-10-19T07:41:12.864Z,98965.69
2022-10-19T07:43:41.762Z,98957.41
2022-10-19T07:46:12.363Z,98968.31
2022-10-19T07:48:39.454Z,98969.81
2022-10-19T07:51:08.082Z,98939.25
2022-10-19T07:53:35.703Z,98971.41
2022-10-19T07:56:07.763Z,98971.25
2022-10-19T07:58:36.489Z,98966.34
2022-10-19T08:01:05.663Z,98959.34
2022-10-19T08:06:21.725Z,98958.84
2022-10-19T08:08:49.451Z,98968.81
2022-10-19T08:11:32.155Z,98970.75
2022-10-19T08:13:59.573Z,98967.69
2022-10-19T08:16:39.557Z,98965.72
2022-10-19T08:19:08.840Z,98971.09
2022-10-19T08:21:37.016Z,98972.75
2022-10-19T08:24:04.764Z,98969.16
2022-10-19T08:26:34.436Z,98967.84
2022-10-19T08:29:20.809Z,98956.75
2022-10-19T08:31:49.350Z,98959.69
2022-10-19T08:34:16.603Z,98960.66
2022-10-19T08:36:44.222Z,98959.53
2022-10-19T08:39:14.332Z,98953.50
2022-10-19T08:41:41.339Z,98957.88
2022-10-19T08:44:26.345Z,98954.78
2022-10-19T08:47:09.329Z,98960.31
2022-10-19T08:49:37.840Z,98952.19
2022-10-19T08:52:11.543Z,98946.97
2022-10-19T08:57:37.224Z,98956.38
2022-10-19T09:00:26.151Z,98956.84
2022-10-19T09:03:20.115Z,98960.63
2022-10-19T09:06:20.548Z,98958.50
2022-10-19T09:08:52.407Z,98963.72
2022-10-19T09:11:26.110Z,98966.34
2022-10-19T09:14:05.469Z,98969.44
2022-10-19T09:16:34.954Z,98971.09
2022-10-19T09:19:03.390Z,98971.25
2022-10-19T09:21:46.983Z,98967.47
2022-10-19T09:24:39.475Z,98968.63
2022-10-19T09:27:16.087Z,98971.56
2022-10-19T09:29:46.372Z,98968.66
2022-10-19T09:32:24.533Z,98967.16
2022-10-19T09:34:54.538Z,98970.44
2022-10-19T09:37:26.251Z,98972.75
2022-10-19T09:39:55.595Z,98969.66
2022-10-19T09:42:33.810Z,98981.41
2022-10-19T09:45:11.502Z,98975.03
2022-10-19T09:47:40.796Z,98972.28
2022-10-19T09:50:25.507Z,98981.59
2022-10-19T09:52:57.645Z,98984.69
2022-10-19T09:56:05.062Z,98974.09
2022-10-19T09:58:33.249Z,98979.47
2022-10-19T10:01:02.195Z,98970.00
2022-10-19T10:03:43.734Z,98969.03
2022-10-19T10:06:15.265Z,98976.06
2022-10-19T10:08:48.878Z,98967.72
2022-10-19T10:11:24.285Z,98971.47
2022-10-19T10:14:07.511Z,98976.81
2022-10-19T10:16:37.232Z,98985.16
2022-10-19T10:19:11.755Z,98983.13
2022-10-19T10:21:55.687Z,98987.03
2022-10-19T10:24:25.047Z,98979.34
2022-10-19T10:26:59.303Z,98979.84
2022-10-19T10:29:32.854Z,98979.19
2022-10-19T10:32:13.903Z,98976.59
2022-10-19T10:34:51.320Z,98980.47
2022-10-19T10:37:26.176Z,98989.78
2022-10-19T10:39:56.716Z,98990.28
2022-10-19T10:42:37.205Z,98977.91
2022-10-19T10:45:05.262Z,98980.72
2022-10-19T10:47:32.691Z,98978.94
2022-10-19T10:50:03.392Z,98974.88
2022-10-19T10:52:31.669Z,98968.56
2022-10-19T10:55:11.092Z,98966.63
2022-10-19T10:57:44.963Z,98978.03
2022-10-19T11:00:19.083Z,98960.72
2022-10-19T11:03:21.394Z,98955.16
2022-10-19T11:06:00.917Z,98954.50
2022-10-19T11:09:16.206Z,98939.75
2022-10-19T11:11:47.698Z,98941.84
2022-10-19T11:14:43.025Z,98949.53
2022-10-19T11:17:22.429Z,98957.88
2022-10-19T11:19:52.500Z,98950.84
2022-10-19T11:22:27.025Z,98951.13
2022-10-19T11:25:17.180Z,98952.44
2022-10-19T11:28:05.623Z,98949.34
2022-10-19T11:30:42.801Z,98951.81
2022-10-19T11:33:39.349Z,98945.28
2022-10-19T11:36:36.101Z,98932.81
2022-10-19T11:39:42.211Z,98930.22
2022-10-19T11:42:19.401Z,98932.44
2022-10-19T11:45:10.967Z,98933.56
2022-10-19T11:47:53.874Z,98940.28
2022-10-19T11:50:44.114Z,98938.81
2022-10-19T11:53:27.966Z,98951.38
2022-10-19T11:56:10.308Z,98945.81
2022-10-19T11:59:03.967Z,98949.41
2022-10-19T12:01:46.373Z,98953.72
2022-10-19T12:04:39.964Z,98948.78
2022-10-19T12:07:09.834Z,98948.13
2022-10-19T12:09:45.688Z,98953.38
2022-10-19T12:12:39.521Z,98959.00
2022-10-19T12:15:12.065Z,98956.25
2022-10-19T12:17:44.560Z,98962.78
2022-10-19T12:20:27.425Z,98960.81
2022-10-19T12:22:55.011Z,98959.03
2022-10-19T12:25:22.287Z,98959.03
2022-10-19T12:27:50.896Z,98954.84
2022-10-19T12:30:22.566Z,98954.19
2022-10-19T12:33:06.251Z,98959.44
2022-10-19T12:35:58.422Z,98959.44
2022-10-19T12:38:42.345Z,98956.16
2022-10-19T12:41:31.281Z,98960.25
2022-10-19T12:43:58.100Z,98968.41
2022-10-19T12:46:25.026Z,98962.34
2022-10-19T12:49:28.891Z,98966.94
2022-10-19T12:52:01.056Z,98961.06
2022-10-19T12:54:35.842Z,98967.09
2022-10-19T12:57:22.827Z,98958.78
2022-10-19T13:00:04.682Z,98966.47
2022-10-19T13:02:35.513Z,98967.44
2022-10-19T13:05:03.116Z,98972.16
2022-10-19T13:07:34.845Z,98980.31
2022-10-19T13:10:06.247Z,98982.25
2022-10-19T13:12:45.601Z,98967.91
2022-10-19T13:15:34.521Z,98986.66
2022-10-19T13:18:02.646Z,98984.88
2022-10-19T13:20:29.458Z,98978.66
2022-10-19T13:23:05.163Z,98990.56
2022-10-19T13:25:39.565Z,98973.91
2022-10-19T13:28:06.402Z,98988.13
2022-10-19T13:30:38.611Z,98995.16
2022-10-19T13:33:25.482Z,98994.03
2022-10-19T13:35:59.814Z,98997.28
2022-10-19T13:38:30.776Z,99000.22
2022-10-19T13:41:07.179Z,99001.19
2022-10-19T13:43:37.764Z,99002.50
2022-10-19T13:46:35.744Z,99004.78
2022-10-19T13:49:27.818Z,99010.34
2022-10-19T13:52:12.166Z,99000.22
2022-10-19T13:54:54.901Z,98995.63
2022-10-19T13:57:50.005Z,98997.28
2022-10-19T14:00:25.736Z,98995.31
2022-10-19T14:02:52.549Z,98991.41
2022-10-19T14:05:46.241Z,98996.78
2022-10-19T14:08:25.449Z,99001.16
2022-10-19T14:11:01.519Z,99003.47
2022-10-19T14:13:29.538Z,99007.88
2022-10-19T14:16:00.254Z,99005.09
2022-10-19T14:18:35.870Z,99003.94
2022-10-19T14:21:06.845Z,99003.78
2022-10-19T14:23:39.931Z,99004.47
2022-10-19T14:26:12.342Z,99010.00
2022-10-19T14:28:41.175Z,99010.00
2022-10-19T14:31:19.284Z,99014.56
2022-10-19T14:33:50.213Z,99007.56
2022-10-19T14:36:20.076Z,99016.84
2022-10-19T14:38:49.878Z,99012.63
2022-10-19T14:41:41.773Z,99016.03
2022-10-19T14:44:36.384Z,99019.13
2022-10-19T14:47:17.164Z,99024.34
2022-10-19T14:49:44.173Z,99022.38
2022-10-19T14:52:18.090Z,99024.03
2022-10-19T14:54:48.086Z,99023.06
2022-10-19T14:57:20.669Z,99026.16
2022-10-19T14:59:51.244Z,99026.16
2022-10-19T15:02:27.194Z,99023.69
2022-10-19T15:04:56.896Z,99034.63
2022-10-19T15:07:44.003Z,99035.44
2022-10-19T15:10:24.474Z,99036.44
2022-10-19T15:12:57.681Z,99034.81
2022-10-19T15:15:33.919Z,99040.66
2022-10-19T15:18:00.899Z,99049.16
2022-10-19T15:20:27.904Z,99052.75
2022-10-19T15:22:56.666Z,99050.28
2022-10-19T15:25:58.850Z,99049.78
2022-10-19T15:28:41.436Z,99058.09
2022-10-19T15:31:25.548Z,99069.19
2022-10-19T15:34:01.019Z,99065.78
2022-10-19T15:36:30.645Z,99063.63
2022-10-19T15:39:24.497Z,99067.03
2022-10-19T15:41:56.610Z,99067.03
2022-10-19T15:44:40.141Z,99073.56
2022-10-19T15:47:19.386Z,99077.31
2022-10-19T15:49:51.983Z,99078.28
2022-10-19T15:52:18.763Z,99080.69
2022-10-19T15:54:50.478Z,99072.69
2022-10-19T15:57:38.084Z,99084.88
2022-10-19T16:00:13.966Z,99088.44
2022-10-19T16:02:41.060Z,99092.53
2022-10-19T16:05:08.723Z,99086.81
2022-10-19T16:07:38.572Z,99087.56
2022-10-19T16:10:06.644Z,99084.47
2022-10-19T16:12:33.560Z,99090.63
2022-10-19T16:15:00.449Z,99089.69
2022-10-19T16:17:27.454Z,99084.47
2022-10-19T16:19:54.406Z,99095.09
2022-10-19T16:22:21.355Z,99092.94
2022-10-19T16:24:48.477Z,99097.03
2022-10-19T16:27:16.491Z,99096.84
2022-10-19T16:29:44.465Z,99091.44
2022-10-19T16:32:11.620Z,99101.44
2022-10-19T16:34:38.774Z,99097.50
2022-10-19T16:37:07.145Z,99109.56
2022-10-19T16:39:34.901Z,99096.84
2022-10-19T16:42:01.853Z,99108.25
2022-10-19T16:44:29.026Z,99102.22
2022-10-19T16:46:57.075Z,99102.72
2022-10-19T16:49:24.330Z,99112.84
2022-10-19T16:51:54.693Z,99115.56
2022-10-19T16:54:24.593Z,99111.97
2022-10-19T16:56:51.521Z,99116.19
2022-10-19T16:59:19.444Z,99120.94
2022-10-19T17:01:47.033Z,99123.53
2022-10-19T17:04:18.128Z,99118.63
2022-10-19T17:06:45.484Z,99123.75
2022-10-19T17:11:59.897Z,99117.28
2022-10-19T17:14:26.896Z,99125.41
2022-10-19T17:16:53.895Z,99124.16
2022-10-19T17:19:20.824Z,99122.50
2022-10-19T17:21:49.343Z,99125.09
2022-10-19T17:24:21.725Z,99134.88
2022-10-19T17:26:52.032Z,99132.94
2022-10-19T17:29:20.057Z,99132.03
2022-10-19T17:31:47.436Z,99135.19
2022-10-19T17:34:14.439Z,99136.72
2022-10-19T17:36:44.794Z,99136.00
2022-10-19T17:39:18.982Z,99141.63
2022-10-19T17:41:47.440Z,99146.19
2022-10-19T17:44:15.225Z,99153.06
2022-10-19T17:46:42.682Z,99151.09
2022-10-19T17:49:13.141Z,99159.31
2022-10-19T17:51:45.963Z,99157.13
2022-10-19T17:54:14.622Z,99154.66
2022-10-19T17:56:45.143Z,99153.06
2022-10-19T17:59:16.035Z,99152.00
2022-10-19T18:01:43.230Z,99148.72
2022-10-19T18:04:10.606Z,99157.22
2022-10-19T18:06:38.464Z,99165.63
2022-10-19T18:09:10.566Z,99170.19
2022-10-19T18:11:45.055Z,99174.03
2022-10-19T18:14:15.524Z,99165.34
2022-10-19T18:16:45.775Z,99169.50
2022-10-19T18:19:14.870Z,99165.72
2022-10-19T18:21:46.860Z,99175.53
2022-10-19T18:24:19.737Z,99169.13
2022-10-19T18:26:50.919Z,99172.84
2022-10-19T18:29:24.326Z,99173.13
2022-10-19T18:31:52.595Z,99175.06
2022-10-19T18:34:26.357Z,99179.78
2022-10-19T18:36:54.543Z,99185.66
2022-10-19T18:39:22.271Z,99189.66
2022-10-19T18:41:54.683Z,99178.78
2022-10-19T18:44:26.351Z,99183.19
2022-10-19T18:46:54.824Z,99185.56
2022-10-19T18:49:21.807Z,99193.66
2022-10-19T18:51:54.020Z,99193.53
2022-10-19T18:54:22.801Z,99186.81
2022-10-19T18:56:49.762Z,99195.47
2022-10-19T18:59:16.933Z,99164.66
2022-10-19T19:01:44.117Z,99192.59
2022-10-19T19:04:11.308Z,99190.09
2022-10-19T19:06:38.733Z,99194.97
2022-10-19T19:09:08.451Z,99183.88
2022-10-19T19:11:37.574Z,99183.88
2022-10-19T19:14:17.306Z,99186.50
2022-10-19T19:16:45.777Z,99181.81
2022-10-19T19:19:14.661Z,99190.28
2022-10-19T19:21:44.628Z,99190.56
2022-10-19T19:24:14.755Z,99189.47
2022-10-19T19:26:43.657Z,99193.59
2022-10-19T19:29:10.685Z,99195.03
2022-10-19T19:31:39.370Z,99195.03
2022-10-19T19:34:07.839Z,99207.63
2022-10-19T19:36:35.556Z,99200.47
2022-10-19T19:39:02.694Z,99205.66
2022-10-19T19:41:31.298Z,99210.31
2022-10-19T19:43:59.063Z,99212.47
2022-10-19T19:46:26.521Z,99208.22
2022-10-19T19:49:02.351Z,99217.41
2022-10-19T19:51:31.249Z,99224.25
2022-10-19T19:53:58.318Z,99220.16
2022-10-19T19:56:25.501Z,99213.88
2022-10-19T19:58:57.556Z,99229.16
2022-10-19T20:01:25.406Z,99234.38
2022-10-19T20:03:52.548Z,99240.41
2022-10-19T20:06:23.543Z,99250.84
2022-10-19T20:08:53.326Z,99243.84
2022-10-19T20:11:20.408Z,99248.09
2022-10-19T20:13:47.257Z,99252.16
2022-10-19T20:16:17.027Z,99246.69
2022-10-19T20:18:45.706Z,99260.41
2022-10-19T20:21:13.295Z,99257.94
2022-10-19T20:23:40.538Z,99262.31
2022-10-19T20:26:15.027Z,99264.53
2022-10-19T20:28:41.976Z,99267.66
2022-10-19T20:31:12.244Z,99270.03
2022-10-19T20:33:40.552Z,99270.84
2022-10-19T20:36:12.715Z,99264.59
2022-10-19T20:38:40.944Z,99269.78
2022-10-19T20:41:09.655Z,99272.91
2022-10-19T20:43:37.904Z,99279.50
2022-10-19T20:46:06.938Z,99272.63
2022-10-19T20:48:34.555Z,99275.25
2022-10-19T20:51:13.391Z,99274.94
2022-10-19T20:53:40.627Z,99274.16
2022-10-19T20:56:09.505Z,99274.94
2022-10-19T20:58:40.253Z,99281.69
2022-10-19T21:01:15.686Z,99277.41
2022-10-19T21:03:50.947Z,99268.94
2022-10-19T21:06:18.025Z,99277.69
2022-10-19T21:08:45.567Z,99280.16
2022-10-19T21:11:19.455Z,99274.72
2022-10-19T21:13:48.092Z,99275.91
2022-10-19T21:16:18.248Z,99286.03
2022-10-19T21:18:47.134Z,99285.91
2022-10-19T21:21:20.377Z,99278.50
2022-10-19T21:23:50.198Z,99283.72
2022-10-19T21:26:17.852Z,99271.69
2022-10-19T21:28:50.235Z,99285.09
2022-10-19T21:31:18.258Z,99277.56
2022-10-19T21:33:45.556Z,99288.94
2022-10-19T21:36:14.297Z,99290.06
2022-10-19T21:38:42.445Z,99286.19
2022-10-19T21:41:13.761Z,99288.66
2022-10-19T21:43:41.048Z,99287.03
2022-10-19T21:46:11.047Z,99286.34
2022-10-19T21:48:39.100Z,99292.53
2022-10-19T21:51:32.154Z,99298.25
2022-10-19T21:54:00.354Z,99299.06
2022-10-19T21:56:29.055Z,99300.88
2022-10-19T21:58:56.359Z,99305.94
2022-10-19T22:01:26.355Z,99309.50
2022-10-19T22:03:58.106Z,99298.03
2022-10-19T22:06:26.616Z,99308.97
2022-10-19T22:08:54.135Z,99315.13
2022-10-19T22:11:21.945Z,99313.09
2022-10-19T22:13:48.990Z,99318.97
2022-10-19T22:16:18.979Z,99324.31
2022-10-19T22:18:47.047Z,99318.56
2022-10-19T22:21:16.915Z,99322.66
2022-10-19T22:23:45.064Z,99327.44
2022-10-19T22:26:16.645Z,99325.81
2022-10-19T22:28:44.126Z,99334.59
2022-10-19T22:31:11.804Z,99325.97
2022-10-19T22:33:39.259Z,99332.22
2022-10-19T22:36:08.490Z,99336.09
2022-10-19T22:38:35.528Z,99336.63
2022-10-19T22:41:02.375Z,99339.25
2022-10-19T22:43:29.237Z,99338.56
2022-10-19T22:45:56.256Z,99342.13
2022-10-19T22:48:23.411Z,99346.69
2022-10-19T22:50:54.217Z,99347.47
2022-10-19T22:53:22.490Z,99342.41
2022-10-19T22:55:49.978Z,99339.94
2022-10-19T22:58:19.343Z,99338.16
2022-10-19T23:01:01.966Z,99343.94
2022-10-19T23:03:28.973Z,99351.88
2022-10-19T23:05:56.021Z,99346.69
2022-10-19T23:08:23.054Z,99354.88
2022-10-19T23:10:50.002Z,99352.41
2022-10-19T23:13:17.254Z,99367.09
2022-10-19T23:15:45.072Z,99358.16
2022-10-19T23:18:13.107Z,99368.19
2022-10-19T23:20:40.097Z,99376.81
2022-10-19T23:23:07.369Z,99372.59
2022-10-19T23:25:34.354Z,99371.75
2022-10-19T23:28:01.274Z,99372.72
2022-10-19T23:30:28.247Z,99382.16
2022-10-19T23:32:55.098Z,99386.19
2022-10-19T23:35:27.890Z,99391.81
2022-10-19T23:37:58.820Z,99394.56
2022-10-19T23:40:25.720Z,99395.09
2022-10-19T23:42:52.568Z,99405.13
2022-10-19T23:45:19.480Z,99398.69
2022-10-19T23:47:46.334Z,99409.66
2022-10-19T23:50:13.153Z,99408.94
2022-10-19T23:52:40.177Z,99408.00
2022-10-19T23:55:07.881Z,99412.13
2022-10-19T23:57:35.556Z,99415.53
